Tiempo atmosférico en la estación meteorológica de Puebla de Sanabria, Zamora (910 m.)



Fecha
DESCASC
Temp. máxima en grados centígrados (hora)
DESCASC
Temp. mínima en grados centígrados (hora)
DESCASC
Temp. media en grados centígrados
DESCASC
Racha de viento máxima en m/sg (hora)
DESCASC
Velocidad máxima media en intervalos de 10 minutos(hora)
DESCASC
Precipitaciones diarias en mm
DESCASC
Precipitaciones de 00:00 a 06:00 en mm
DESCASC
Precipitaciones de 06:00 a 12:00 en mm
DESCASC
Precipitaciones de 12:00 a 18:00 en mm
DESCASC
Precipitaciones de 18:00 a 24:00 en mm
DESCASC

Gráficas

Temp. máximas Temp. mínimas Temp. medias Precipitaciones Rachas de viento máximas Velocidades máximas media en intervalos de 10 minutos

Datos horarios

Fecha y hora oficial Temperatura (ºC) Velocidad del viento (km/h) Dirección del viento Racha (km/h) Dirección de racha Precipitación (mm) Presión (hPa) Tendencia (hPa) Humedad (%)
2019-02-17 23:00:00 1.7 0 Calma 4 Norte 0 -- -- 85
2019-02-17 22:00:00 2.6 2 Norte 4 Norte 0 -- -- 81
2019-02-17 21:00:00 4.4 0 Calma 3 Norte 0 -- -- 75
2019-02-17 20:00:00 7.1 0 Calma 5 Sudeste 0 -- -- 66
2019-02-17 19:00:00 9.4 3 Sudeste 8 Sudeste 0 -- -- 58
2019-02-17 18:00:00 10.7 6 Sur 19 Sudeste 0 -- -- 53
2019-02-17 17:00:00 12.1 6 Sur 19 Sudeste 0 -- -- 49
2019-02-17 16:00:00 12.9 8 Sur 22 Sudeste 0 -- -- 49
2019-02-17 15:00:00 12.1 5 Sudeste 17 Sudeste 0 -- -- 51
2019-02-17 14:00:00 11.9 5 Sur 21 Sudeste 0 -- -- 50
2019-02-17 13:00:00 11.5 8 Sur 19 Sudeste 0 -- -- 50
2019-02-17 12:00:00 10.7 8 Sudeste 19 Sudeste 0 -- -- 55
2019-02-17 11:00:00 4.7 0 Calma 3 Sur 0 -- -- 91
2019-02-17 10:00:00 -0.3 2 Sudeste 4 Sudeste 0 -- -- 100
2019-02-17 09:00:00 -3.5 0 Calma 2 Norte 0 -- -- 97
2019-02-17 08:00:00 -4 0 Calma 3 Norte 0 -- -- 96
2019-02-17 07:00:00 -3.9 0 Calma 3 Norte 0 -- -- 96
2019-02-17 06:00:00 -3.9 2 Norte 4 Norte 0 -- -- 96
2019-02-17 05:00:00 -3.8 0 Calma 3 Norte 0 -- -- 95
2019-02-17 04:00:00 -3.5 0 Calma 2 Norte 0 -- -- 95
2019-02-17 03:00:00 -3.2 0 Calma 3 Noroeste 0 -- -- 93
2019-02-17 02:00:00 -2.7 0 Calma 3 Norte 0 -- -- 92
2019-02-17 01:00:00 -2.1 0 Calma 6 Norte 0 -- -- 90
2019-02-17 00:00:00 -1.2 0 Calma 4 Norte 0 -- -- 88
2019-02-16 23:00:00 -0.1 0 Calma 4 Norte 0 -- -- 84
2019-02-16 22:00:00 1.4 0 Calma 3 Norte 0 -- -- 76
2019-02-16 21:00:00 3.7 2 Norte 5 Norte 0 -- -- 69
2019-02-16 20:00:00 7.4 2 Norte 6 Norte 0 -- -- 57
2019-02-16 19:00:00 12.6 0 Calma 7 Sudeste 0 -- -- 44
2019-02-16 18:00:00 15.2 4 Sudeste 10 Sudeste 0 -- -- 38
2019-02-16 17:00:00 16.5 4 Sudeste 19 Sudeste 0 -- -- 31
2019-02-16 16:00:00 16.5 8 Sudeste 22 Sudeste 0 -- -- 33
2019-02-16 15:00:00 16.5 8 Sur 22 Sur 0 -- -- 37
2019-02-16 14:00:00 15.6 5 Sur 15 Sudeste 0 -- -- 39
2019-02-16 13:00:00 13.8 4 Sur 10 Sudeste 0 -- -- 44
2019-02-16 12:00:00 10.8 2 Sudoeste 4 Sudoeste 0 -- -- 51
2019-02-16 11:00:00 4.6 0 Calma 5 Oeste 0 -- -- 80
2019-02-16 10:00:00 -2.3 0 Calma 2 Norte 0 -- -- 100
2019-02-16 09:00:00 -4.4 0 Calma 4 Oeste 0 -- -- 96
2019-02-16 08:00:00 -4.5 0 Calma 3 Oeste 0 -- -- 96
2019-02-16 07:00:00 -4.1 0 Calma 3 Norte 0 -- -- 95
2019-02-16 06:00:00 -3.5 0 Calma 2 Noroeste 0 -- -- 94
2019-02-16 05:00:00 -2.7 0 Calma 3 Oeste 0 -- -- 93
2019-02-16 04:00:00 -1.8 0 Calma 5 Nordeste 0 -- -- 95
2019-02-16 03:00:00 -1.9 0 Calma 3 Oeste 0 -- -- 94
2019-02-16 02:00:00 -1.4 0 Calma 5 Norte 0 -- -- 93
2019-02-16 01:00:00 -0.7 3 Norte 4 Norte 0 -- -- 90
2019-02-16 00:00:00 0 0 Calma 3 Noroeste 0 -- -- 87
2019-02-15 23:00:00 1.3 0 Calma 4 Norte 0 -- -- 83
2019-02-15 22:00:00 2.7 0 Calma 2 Norte 0 -- -- 79
2019-02-15 21:00:00 4.8 0 Calma 5 Norte 0 -- -- 73
2019-02-15 20:00:00 7.9 0 Calma 4 Norte 0 -- -- 62
2019-02-15 19:00:00 12.4 0 Calma 6 Sudoeste 0 -- -- 48
2019-02-15 18:00:00 15.2 2 Sudeste 7 Sur 0 -- -- 42
2019-02-15 17:00:00 16.4 4 Sur 14 Sur 0 -- -- 36
2019-02-15 16:00:00 16.8 5 Sur 16 Sudeste 0 -- -- 34
2019-02-15 15:00:00 16.9 6 Sudeste 17 Sudeste 0 -- -- 37
2019-02-15 14:00:00 15.7 3 Sur 10 Este 0 -- -- 41
2019-02-15 13:00:00 14.6 5 Este 14 Sudeste 0 -- -- 46
2019-02-15 12:00:00 11.6 3 Este 8 Sudeste 0 -- -- 57
2019-02-15 11:00:00 4.7 0 Calma 3 Norte 0 -- -- 86
2019-02-15 10:00:00 -2.8 2 Norte 4 Norte 0 -- -- 100
2019-02-15 09:00:00 -5.3 0 Calma 4 Norte 0 -- -- 96
2019-02-15 08:00:00 -5.2 0 Calma 2 Norte 0 -- -- 95
2019-02-15 07:00:00 -4.9 0 Calma 4 Norte 0 -- -- 95
2019-02-15 06:00:00 -4.4 0 Calma 3 Norte 0 -- -- 95
2019-02-15 05:00:00 -4.2 0 Calma 3 Norte 0 -- -- 94
2019-02-15 04:00:00 -4 0 Calma 4 Norte 0 -- -- 93
2019-02-15 03:00:00 -3.6 0 Calma 4 Norte 0 -- -- 93
2019-02-15 02:00:00 -3.3 0 Calma 4 Norte 0 -- -- 91
2019-02-15 01:00:00 -2.7 0 Calma 4 Norte 0 -- -- 91
2019-02-15 00:00:00 -2 0 Calma 6 Norte 0 -- -- 89
2019-02-14 23:00:00 -1.1 0 Calma 5 Norte 0 -- -- 85
2019-02-14 22:00:00 0.6 0 Calma 3 Oeste 0 -- -- 80
2019-02-14 21:00:00 3 0 Calma 6 Norte 0 -- -- 70
2019-02-14 20:00:00 6.3 3 Norte 6 Oeste 0 -- -- 59
2019-02-14 19:00:00 11.3 0 Calma 6 Sur 0 -- -- 45
2019-02-14 18:00:00 14.4 4 Sur 15 Sudoeste 0 -- -- 37
2019-02-14 17:00:00 15.3 7 Sur 19 Sur 0 -- -- 34
2019-02-14 16:00:00 15.3 6 Sur 19 Sudeste 0 -- -- 36
2019-02-14 15:00:00 15.1 3 Sudeste 18 Sudeste 0 -- -- 37
2019-02-14 14:00:00 14.3 6 Sur 16 Sur 0 -- -- 40
2019-02-14 13:00:00 12.3 6 Sur 13 Sudeste 0 -- -- 47
2019-02-14 12:00:00 9.3 5 Sudeste 12 Sudeste 0 -- -- 55
2019-02-14 11:00:00 3.7 3 Sudeste 7 Este 0 -- -- 80
2019-02-14 10:00:00 -3.8 0 Calma 3 Norte 0 -- -- 100
2019-02-14 09:00:00 -5.9 0 Calma 3 Noroeste 0 -- -- 96
2019-02-14 08:00:00 -6.2 0 Calma 2 Norte 0 -- -- 95
2019-02-14 07:00:00 -6.1 0 Calma 2 Noroeste 0 -- -- 95
2019-02-14 06:00:00 -5.7 0 Calma 2 Norte 0 -- -- 95
2019-02-14 05:00:00 -5.4 0 Calma 2 Norte 0 -- -- 95
2019-02-14 04:00:00 -5 0 Calma 2 Noroeste 0 -- -- 94
2019-02-14 03:00:00 -4.5 0 Calma 3 Noroeste 0 -- -- 92
2019-02-14 02:00:00 -3.8 0 Calma 3 Norte 0 -- -- 92
2019-02-14 01:00:00 -3.4 0 Calma 2 Norte 0 -- -- 89
2019-02-14 00:00:00 -2.5 0 Calma 3 Norte 0 -- -- 88
2019-02-13 23:00:00 -1.5 0 Calma 3 Norte 0 -- -- 83
2019-02-13 22:00:00 0 0 Calma 5 Norte 0 -- -- 77
2019-02-13 21:00:00 2.1 2 Norte 4 Norte 0 -- -- 69
2019-02-13 20:00:00 5.6 2 Norte 5 Norte 0 -- -- 56
2019-02-13 19:00:00 10.6 0 Calma 9 Sur 0 -- -- 41
2019-02-13 18:00:00 13.5 5 Sur 11 Sudeste 0 -- -- 33
2019-02-13 17:00:00 14.6 4 Sudoeste 10 Sur 0 -- -- 32
2019-02-13 16:00:00 14.5 3 Sur 18 Sudeste 0 -- -- 30
2019-02-13 15:00:00 14.4 6 Sudeste 19 Este 0 -- -- 33
2019-02-13 14:00:00 13.9 6 Sudeste 15 Este 0 -- -- 34
2019-02-13 13:00:00 12.4 4 Sudoeste 10 Sudoeste 0 -- -- 36
2019-02-13 12:00:00 9.1 0 Calma 5 Noroeste 0 -- -- 48
2019-02-13 11:00:00 2.4 0 Calma 2 Sudoeste 0 -- -- 73
2019-02-13 10:00:00 -4.9 0 Calma 3 Norte 0 -- -- 97
2019-02-13 09:00:00 -7.1 2 Norte 2 Norte 0 -- -- 95
2019-02-13 08:00:00 -7.1 0 Calma 3 Norte 0 -- -- 95
2019-02-13 07:00:00 -6.8 0 Calma 3 Norte 0 -- -- 95
2019-02-13 06:00:00 -6.3 0 Calma 2 Noroeste 0 -- -- 95
2019-02-13 05:00:00 -5.9 0 Calma 2 Norte 0 -- -- 94
2019-02-13 04:00:00 -5.5 0 Calma 3 Norte 0 -- -- 94
2019-02-13 03:00:00 -5 0 Calma 2 Norte 0 -- -- 93
2019-02-13 02:00:00 -4.5 0 Calma 3 Norte 0 -- -- 92
2019-02-13 01:00:00 -3.9 0 Calma 2 Norte 0 -- -- 91
2019-02-13 00:00:00 -3.1 0 Calma 2 Norte 0 -- -- 88
2019-02-12 23:00:00 -2.2 0 Calma 3 Norte 0 -- -- 85
2019-02-12 22:00:00 -0.8 0 Calma 5 Norte 0 -- -- 80
2019-02-12 21:00:00 1 4 Norte 6 Norte 0 -- -- 73
2019-02-12 20:00:00 4.5 2 Norte 6 Oeste 0 -- -- 61
2019-02-12 19:00:00 9 0 Calma 9 Sudeste 0 -- -- 45
2019-02-12 18:00:00 12 4 Sudeste 15 Sudeste 0 -- -- 38
2019-02-12 17:00:00 12.8 6 Sur 14 Sudoeste 0 -- -- 39
2019-02-12 16:00:00 12.2 6 Sur 15 Sudeste 0 -- -- 47
2019-02-12 15:00:00 11.6 7 Sur 17 Sudeste 0 -- -- 53
2019-02-12 14:00:00 10.3 4 Sur 11 Sur 0 -- -- 56
2019-02-12 13:00:00 8.6 3 Sur 8 Sudeste 0 -- -- 60
2019-02-12 12:00:00 5.9 2 Sudeste 5 Sur 0 -- -- 73
2019-02-12 11:00:00 1.7 0 Calma 2 Sudoeste 0 -- -- 97
2019-02-12 10:00:00 -4.3 0 Calma 2 Noroeste 0 -- -- 99
2019-02-12 09:00:00 -6.2 0 Calma 2 Norte 0 -- -- 96
2019-02-12 08:00:00 -6.1 0 Calma 2 Norte 0 -- -- 96
2019-02-12 07:00:00 -5.8 0 Calma 2 Norte 0 -- -- 95
2019-02-12 06:00:00 -5.3 0 Calma 3 Norte 0 -- -- 96
2019-02-12 05:00:00 -5 0 Calma 2 Norte 0 -- -- 96
2019-02-12 04:00:00 -4.5 0 Calma 3 Norte 0 -- -- 96
2019-02-12 03:00:00 -4 0 Calma 4 Norte 0 -- -- 95
2019-02-12 02:00:00 -3.5 0 Calma 4 Nordeste 0 -- -- 95
2019-02-12 01:00:00 -3 0 Calma 5 Este 0 -- -- 95
2019-02-12 00:00:00 -2.6 0 Calma 5 Noroeste 0 -- -- 94
2019-02-11 23:00:00 -1.9 0 Calma 4 Norte 0 -- -- 91
2019-02-11 22:00:00 -0.8 0 Calma 3 Norte 0 -- -- 87
2019-02-11 21:00:00 1.2 0 Calma 4 Norte 0 -- -- 82
2019-02-11 20:00:00 3.8 0 Calma 3 Oeste 0 -- -- 70
2019-02-11 19:00:00 7.5 0 Calma 4 Sudeste 0 -- -- 56
2019-02-11 18:00:00 10.1 3 Sur 4 Sur 0 -- -- 52
2019-02-11 17:00:00 11 2 Sur 4 Sudeste 0 -- -- 49
2019-02-11 16:00:00 10.8 3 Sur 4 Sudoeste 0 -- -- 50
2019-02-11 15:00:00 10.5 3 Sudeste 4 Sudeste 0 -- -- 50
2019-02-11 14:00:00 9.2 3 Sudoeste 4 Sudeste 0 -- -- 57
2019-02-11 13:00:00 7.9 3 Sur 9 Sur 0 -- -- 64
2019-02-11 12:00:00 5.8 2 Sudeste 3 Sudeste 0 -- -- 69
2019-02-11 11:00:00 2 0 Calma 2 Este 0 -- -- 87
2019-02-11 10:00:00 -3 0 Calma 2 Nordeste 0 -- -- 98
2019-02-11 09:00:00 -4.9 0 Calma 2 Noroeste 0 -- -- 98
2019-02-11 08:00:00 -5.3 0 Calma 2 Sur 0 -- -- 96
2019-02-11 07:00:00 -5 0 Calma 2 Noroeste 0 -- -- 96
2019-02-11 06:00:00 -4.4 0 Calma 2 Norte 0 -- -- 96
2019-02-11 05:00:00 -4 0 Calma 2 Norte 0 -- -- 95
2019-02-11 04:00:00 -3.5 0 Calma 2 Norte 0 -- -- 94
2019-02-11 03:00:00 -2.6 0 Calma 3 Norte 0 -- -- 92
2019-02-11 02:00:00 -1.8 2 Norte 4 Norte 0 -- -- 89
2019-02-11 01:00:00 0.7 0 Calma 4 Oeste 0 -- -- 79
2019-02-11 00:00:00 0.2 3 Oeste 4 Sudoeste 0 -- -- 88
2019-02-10 23:00:00 1.4 0 Calma 4 Nordeste 0 -- -- 81
2019-02-10 22:00:00 3.3 2 Norte 17 Noroeste 0 -- -- 74
2019-02-10 21:00:00 5.1 5 Oeste 10 Oeste 0 -- -- 72
2019-02-10 20:00:00 6.4 6 Oeste 22 Oeste 0 -- -- 68
2019-02-10 19:00:00 6.9 3 Noroeste 25 Sudoeste 0 -- -- 69
2019-02-10 18:00:00 8.1 13 Oeste 25 Oeste 0 -- -- 63
2019-02-10 17:00:00 9.3 5 Oeste 35 Oeste 0 -- -- 60
2019-02-10 16:00:00 9.3 18 Oeste 36 Oeste 0 -- -- 65
2019-02-10 15:00:00 11.8 11 Oeste -- -- 0 -- -- 60
2019-02-10 14:00:00 11.5 2 Oeste 3 Sudoeste 0 -- -- 67
2019-02-10 13:00:00 10.6 2 Sudoeste 19 Sur 0 -- -- 88
2019-02-10 12:00:00 9.4 8 Sur 18 Sudoeste 0.2 -- -- 96
2019-02-10 11:00:00 8.2 8 Sur 22 Sur 0.6 -- -- 97
2019-02-10 10:00:00 7.4 9 Sur 18 Sudeste 0.4 -- -- 98
2019-02-10 09:00:00 7 3 Sudeste 4 Este 0.2 -- -- 97
2019-02-10 08:00:00 6.8 3 Este 4 Sudeste 0.4 -- -- 96
2019-02-10 07:00:00 6.6 3 Este 18 Sudeste 0.4 -- -- 98
2019-02-10 06:00:00 6.2 6 Este 20 Este 0.4 -- -- 98
2019-02-10 05:00:00 6.1 6 Sudeste 21 Este 0.6 -- -- 97
2019-02-10 04:00:00 6 6 Sudeste 17 Sudeste 0.4 -- -- 97
2019-02-10 03:00:00 5.9 6 Sudeste 20 Sudeste 0.2 -- -- 96
2019-02-10 02:00:00 5.8 6 Sur 20 Sudeste 0.2 -- -- 95
2019-02-10 01:00:00 5.7 5 Sur 18 Este 0 -- -- 94
2019-02-10 00:00:00 5.8 4 Sur 21 Sur 0 -- -- 92
2019-02-09 23:00:00 6.1 10 Sudoeste 21 Sudoeste 0 -- -- 87
2019-02-09 22:00:00 5.9 6 Sur 14 Sur 0 -- -- 87
2019-02-09 21:00:00 6.6 6 Sudoeste 15 Sudoeste 0 -- -- 78
2019-02-09 20:00:00 6.9 5 Sudoeste 19 Sudoeste 0 -- -- 74
2019-02-09 19:00:00 7.3 10 Sudoeste 23 Sudoeste 0 -- -- 70
2019-02-09 18:00:00 8 6 Sudoeste 17 Sudoeste 0 -- -- 73
2019-02-09 17:00:00 8.2 7 Sudoeste 19 Sur 0 -- -- 72
2019-02-09 16:00:00 8.2 3 Sudoeste 4 Sudoeste 0 -- -- 73
2019-02-09 15:00:00 8.1 3 Sur 4 Sur 0 -- -- 75
2019-02-09 14:00:00 7.9 3 Sur 17 Sudoeste 0 -- -- 79
2019-02-09 13:00:00 7.4 6 Sur 12 Sur 0 -- -- 85
2019-02-09 12:00:00 6.5 2 Sudoeste 4 Oeste 0 -- -- 94
2019-02-09 11:00:00 4 0 Calma 3 Noroeste 0 -- -- 98
2019-02-09 10:00:00 1.7 0 Calma 3 Norte 0 -- -- 99
2019-02-09 09:00:00 0.1 0 Calma 3 Norte 0 -- -- 99
2019-02-09 08:00:00 -0.9 0 Calma 2 Nordeste 0 -- -- 98
2019-02-09 07:00:00 -1.3 0 Calma 2 Norte 0 -- -- 97
2019-02-09 06:00:00 -0.8 0 Calma 3 Norte 0 -- -- 97
2019-02-09 05:00:00 0 2 Norte 4 Sudeste 0 -- -- 96
2019-02-09 04:00:00 1.5 0 Calma 4 Sudeste 0 -- -- 94
2019-02-09 03:00:00 3.5 0 Calma 3 Oeste 0 -- -- 85
2019-02-09 02:00:00 5.4 3 Oeste 3 Oeste 0 -- -- 82
2019-02-09 01:00:00 5.5 0 Calma 3 Sur 0 -- -- 89
2019-02-09 00:00:00 5.5 2 Sudeste 3 Este 0 -- -- 93
2019-02-08 23:00:00 5.4 2 Este 3 Este 0 -- -- 93
2019-02-08 22:00:00 5.8 3 Sur 4 Sur 0 -- -- 89
2019-02-08 21:00:00 5.8 2 Sur 3 Sudeste 0 -- -- 88
2019-02-08 20:00:00 6 2 Sudeste 3 Este 0 -- -- 86
2019-02-08 19:00:00 6.4 3 Sur 22 Sur 0 -- -- 83
2019-02-08 18:00:00 7.7 7 Sur 16 Sudoeste 0 -- -- 75
2019-02-08 17:00:00 9.4 3 Sudoeste -- -- 0 -- -- 65
2019-02-08 16:00:00 9.9 4 Sudoeste 5 Sudoeste 0 -- -- 59
2019-02-08 15:00:00 10.4 3 Sudeste 24 Sudeste 0 -- -- 59
2019-02-08 14:00:00 10.4 9 Sudeste 20 Sudeste 0 -- -- 56
2019-02-08 13:00:00 9.5 4 Sudeste 15 Este 0 -- -- 60
2019-02-08 12:00:00 5.5 4 Este 13 Sudeste 0 -- -- 85
2019-02-08 11:00:00 0.9 3 Este 9 Sudeste 0 -- -- 100
2019-02-08 10:00:00 -4.4 0 Calma 3 Norte 0 -- -- 100
2019-02-08 09:00:00 -6.4 0 Calma 2 Noroeste 0 -- -- 95
2019-02-08 08:00:00 -6.2 0 Calma 5 Norte 0 -- -- 95
2019-02-08 07:00:00 -5.8 0 Calma 3 Norte 0 -- -- 95
2019-02-08 06:00:00 -5.4 0 Calma 3 Oeste 0 -- -- 95
2019-02-08 05:00:00 -4.9 0 Calma 2 Noroeste 0 -- -- 95
2019-02-08 04:00:00 -4.1 0 Calma 5 Norte 0 -- -- 95
2019-02-08 03:00:00 -3.5 0 Calma 3 Norte 0 -- -- 96
2019-02-08 02:00:00 -2.9 0 Calma 3 Norte 0 -- -- 96
2019-02-08 01:00:00 -2.1 0 Calma 4 Norte 0 -- -- 96
2019-02-08 00:00:00 -1.6 0 Calma 4 Norte 0 -- -- 95
2019-02-07 23:00:00 -1 0 Calma 4 Norte 0 -- -- 92
2019-02-07 22:00:00 0.3 0 Calma 4 Norte 0 -- -- 91
2019-02-07 21:00:00 2.1 0 Calma 7 Norte 0 -- -- 86
2019-02-07 20:00:00 4.7 2 Norte 6 Este 0 -- -- 80
2019-02-07 19:00:00 8.3 0 Calma 13 Sudeste 0 -- -- 69
2019-02-07 18:00:00 10.9 6 Sudeste 14 Sudeste 0 -- -- 61
2019-02-07 17:00:00 12.9 5 Sudeste 16 Sudeste 0 -- -- 53
2019-02-07 16:00:00 12.8 9 Sudeste 22 Sur 0 -- -- 52
2019-02-07 15:00:00 12.9 2 Oeste 12 Sudoeste 0 -- -- 42
2019-02-07 14:00:00 11.6 4 Noroeste 17 Oeste 0 -- -- 48
2019-02-07 13:00:00 10.6 6 Sudoeste 23 Sudoeste 0 -- -- 54
2019-02-07 12:00:00 9.7 9 Sudoeste 22 Oeste 0 -- -- 54
2019-02-07 11:00:00 8.2 6 Oeste 18 Sudoeste 0 -- -- 62
2019-02-07 10:00:00 4.4 4 Sur 20 Noroeste 0 -- -- 77
2019-02-07 09:00:00 2.8 4 Oeste 13 Oeste 0 -- -- 87
2019-02-07 08:00:00 -1.1 2 Sur 8 Norte 0 -- -- 96
2019-02-07 07:00:00 -1.6 2 Norte 9 Norte 0 -- -- 94
2019-02-07 06:00:00 -1.9 2 Norte 9 Oeste 0 -- -- 94
2019-02-07 05:00:00 -2.9 3 Norte 6 Noroeste 0 -- -- 92
2019-02-07 04:00:00 -2.3 0 Calma 9 Este 0 -- -- 89
2019-02-07 03:00:00 -2.7 2 Norte 5 Norte 0 -- -- 88
2019-02-07 02:00:00 -1.8 0 Calma 6 Norte 0 -- -- 84
2019-02-07 01:00:00 -0.6 3 Norte 10 Norte 0 -- -- 80
2019-02-07 00:00:00 1.9 2 Este 10 Sudeste 0 -- -- 71
2019-02-06 23:00:00 1.6 4 Sudeste 11 Sudoeste 0 -- -- 75
2019-02-06 22:00:00 1.8 2 Sudeste 5 Oeste 0 -- -- 78
2019-02-06 21:00:00 3.9 0 Calma 5 Norte 0 -- -- 69
2019-02-06 20:00:00 6.4 2 Norte 6 Sudeste 0 -- -- 63
2019-02-06 19:00:00 9.3 0 Calma 16 Sur 0 -- -- 51
2019-02-06 18:00:00 11.1 5 Sur 17 Sur 0 -- -- 49
2019-02-06 17:00:00 12.6 9 Sudoeste 22 Sur 0 -- -- 43
2019-02-06 16:00:00 13.5 6 Sudoeste 22 Sudoeste 0 -- -- 34
2019-02-06 15:00:00 13.2 10 Sur 22 Sur 0 -- -- 38
2019-02-06 14:00:00 12.9 9 Sur 22 Sur 0 -- -- 51
2019-02-06 13:00:00 12.2 6 Sudeste 19 Sudeste 0 -- -- 61
2019-02-06 12:00:00 8.6 0 Calma 5 Sudoeste 0 -- -- 77
2019-02-06 11:00:00 2.6 0 Calma 2 Norte 0 -- -- 100
2019-02-06 10:00:00 -3.2 0 Calma 2 Norte 0 -- -- 100
2019-02-06 09:00:00 -4.7 0 Calma 2 Noroeste 0 -- -- 97
2019-02-06 08:00:00 -4.7 0 Calma 3 Norte 0 -- -- 96
2019-02-06 07:00:00 -4.4 0 Calma 2 Sudoeste 0 -- -- 95
2019-02-06 06:00:00 -3.9 0 Calma 2 Norte 0 -- -- 97
2019-02-06 05:00:00 -3.7 0 Calma 2 Noroeste 0 -- -- 96
2019-02-06 04:00:00 -3.2 0 Calma 2 Norte 0 -- -- 96
2019-02-06 03:00:00 -2.8 0 Calma 2 Norte 0 -- -- 96
2019-02-06 02:00:00 -2.2 0 Calma 2 Norte 0 -- -- 97
2019-02-06 01:00:00 -2 0 Calma 4 Norte 0 -- -- 95
2019-02-06 00:00:00 -1.1 2 Nordeste 3 Nordeste 0 -- -- 95
2019-02-05 23:00:00 -0.3 0 Calma 2 Norte 0 -- -- 92
2019-02-05 22:00:00 1.1 0 Calma 3 Norte 0 -- -- 90
2019-02-05 21:00:00 2.8 2 Norte 6 Norte 0 -- -- 86
2019-02-05 20:00:00 5.5 3 Norte 6 Norte 0 -- -- 78
2019-02-05 19:00:00 10.2 2 Sudeste 3 Sudeste 0 -- -- 65
2019-02-05 18:00:00 13.1 3 Sur 14 Sur 0 -- -- 56
2019-02-05 17:00:00 14.1 3 Sudoeste 13 Oeste 0 -- -- 50
2019-02-05 16:00:00 13.9 5 Oeste 15 Sudoeste 0 -- -- 51
2019-02-05 15:00:00 13.8 4 Sur 20 Sur 0 -- -- 55
2019-02-05 14:00:00 13.2 4 Sudoeste 14 Sur 0 -- -- 56
2019-02-05 13:00:00 11.7 4 Sur 10 Sudeste 0 -- -- 63
2019-02-05 12:00:00 7.9 3 Sudeste 5 Sudeste 0 -- -- 79
2019-02-05 11:00:00 2.3 0 Calma 3 Norte 0 -- -- 100
2019-02-05 10:00:00 -3.2 0 Calma 3 Norte 0 -- -- 100
2019-02-05 09:00:00 -4.7 0 Calma 2 Norte 0 -- -- 97
2019-02-05 08:00:00 -4.7 0 Calma 2 Norte 0 -- -- 97
2019-02-05 07:00:00 -4.6 0 Calma 2 Norte 0 -- -- 96
2019-02-05 06:00:00 -4.2 0 Calma 3 Noroeste 0 -- -- 97
2019-02-05 05:00:00 -3.8 0 Calma 2 Norte 0 -- -- 97
2019-02-05 04:00:00 -3.4 0 Calma 2 Norte 0 -- -- 96
2019-02-05 03:00:00 -3 0 Calma 2 Norte 0 -- -- 96
2019-02-05 02:00:00 -2.4 0 Calma 3 Norte 0 -- -- 96
2019-02-05 01:00:00 -1.9 0 Calma 3 Noroeste 0 -- -- 95
2019-02-05 00:00:00 -1.1 0 Calma 3 Norte 0 -- -- 93
2019-02-04 23:00:00 0.2 0 Calma 3 Norte 0 -- -- 91
2019-02-04 22:00:00 1.3 0 Calma 4 Norte 0 -- -- 87
2019-02-04 21:00:00 2.4 2 Norte 3 Norte 0 -- -- 82
2019-02-04 20:00:00 4.4 0 Calma 4 Este 0 -- -- 73
2019-02-04 19:00:00 6.9 2 Sudeste 5 Este 0 -- -- 62
2019-02-04 18:00:00 9.2 3 Este 12 Este 0 -- -- 58
2019-02-04 17:00:00 10.9 8 Sudeste 17 Sudeste 0 -- -- 53
2019-02-04 16:00:00 10.8 4 Sudeste -- -- 0 -- -- 52
2019-02-04 15:00:00 10.8 -- -- -- -- 0 -- -- 51
2019-02-04 14:00:00 9.9 -- -- -- -- 0 -- -- 49
2019-02-04 13:00:00 7.3 3 Sur 3 Este 0 -- -- 52
2019-02-04 12:00:00 3.5 0 Calma 3 Sudoeste 0 -- -- 62
2019-02-04 11:00:00 -1.5 0 Calma 2 Oeste 0 -- -- 92
2019-02-04 10:00:00 -5.2 0 Calma 2 Nordeste 0 -- -- 96
2019-02-04 09:00:00 -6.5 0 Calma 2 Sur 0 -- -- 97
2019-02-04 08:00:00 -7.6 0 Calma 2 Norte 0 -- -- 95
2019-02-04 07:00:00 -7.4 0 Calma 2 Noroeste 0 -- -- 95
2019-02-04 06:00:00 -7.1 0 Calma 2 Norte 0 -- -- 95
2019-02-04 05:00:00 -6.8 0 Calma 3 Oeste 0 -- -- 94
2019-02-04 04:00:00 -6.2 0 Calma 4 Norte 0 -- -- 94
2019-02-04 03:00:00 -5.6 0 Calma 2 Norte 0 -- -- 94
2019-02-04 02:00:00 -5 0 Calma 5 Nordeste 0 -- -- 92
2019-02-04 01:00:00 -4.3 0 Calma 4 Norte 0 -- -- 92
2019-02-04 00:00:00 -3.9 0 Calma 2 Norte 0 -- -- 87
2019-02-03 23:00:00 -3.5 0 Calma 2 Norte 0 -- -- 87
2019-02-03 22:00:00 -3.2 0 Calma 2 Oeste 0 -- -- 85
2019-02-03 21:00:00 -2.5 0 Calma 3 Norte 0 -- -- 81
2019-02-03 20:00:00 -0.8 2 Norte 3 Norte 0 -- -- 71
2019-02-03 19:00:00 2.8 2 Oeste 5 Oeste 0 -- -- 53
2019-02-03 18:00:00 6.6 3 Sur 9 Sudeste 0 -- -- 37
2019-02-03 17:00:00 7.2 4 Sudeste 11 Sudeste 0 -- -- 35
2019-02-03 16:00:00 6.9 4 Sudoeste 10 Sudoeste 0 -- -- 38
2019-02-03 15:00:00 6.6 4 Sudoeste 12 Sudeste 0 -- -- 37
2019-02-03 14:00:00 5.9 3 Sudeste 8 Sudeste 0 -- -- 37
2019-02-03 13:00:00 4.9 3 Sur 12 Sudeste 0 -- -- 42
2019-02-03 12:00:00 2.4 0 Calma 5 Sudeste 0 -- -- 57
2019-02-03 11:00:00 -1.7 0 Calma 3 Nordeste 0 -- -- 81
2019-02-03 10:00:00 -4.9 0 Calma 2 Norte 0 -- -- 95
2019-02-03 09:00:00 -6.3 0 Calma 3 Este 0 -- -- 95
2019-02-03 08:00:00 -6.5 0 Calma 4 Norte 0 -- -- 95
2019-02-03 07:00:00 -6.3 0 Calma 3 Sudeste 0 -- -- 93
2019-02-03 06:00:00 -5.9 0 Calma 5 Oeste 0 -- -- 90
2019-02-03 05:00:00 -4.6 0 Calma 4 Noroeste 0 -- -- 88
2019-02-03 04:00:00 -3.3 0 Calma 5 Este 0 -- -- 83
2019-02-03 03:00:00 -2.6 2 Sudeste 7 Sur 0 -- -- 81
2019-02-03 02:00:00 -0.7 0 Calma 14 Noroeste 0 -- -- 72
2019-02-03 01:00:00 0.3 4 Noroeste 21 Noroeste 0 -- -- 68
2019-02-03 00:00:00 0.9 2 Nordeste 15 Norte 0 -- -- 72
2019-02-02 23:00:00 1.2 3 Nordeste 10 Sur 0 -- -- 73
2019-02-02 22:00:00 0.4 3 Sur 11 Sudeste 0 -- -- 77
2019-02-02 21:00:00 0.9 3 Este 12 Sur 0 -- -- 73
2019-02-02 20:00:00 1.5 0 Calma 29 Oeste 0 -- -- 68
2019-02-02 19:00:00 2.2 11 Oeste 26 Sudoeste 0 -- -- 68
2019-02-02 18:00:00 3 5 Sudoeste 14 Noroeste 0 -- -- 58
2019-02-02 17:00:00 3.7 4 Oeste 24 Oeste 0 -- -- 57
2019-02-02 16:00:00 3.6 8 Sudoeste 25 Noroeste 0 -- -- 58
2019-02-02 15:00:00 4.1 4 Oeste 30 Norte 0 -- -- 55
2019-02-02 14:00:00 4.1 3 Noroeste 4 Noroeste 0 -- -- 52
2019-02-02 13:00:00 3.3 10 Noroeste -- -- 0.2 -- -- 48
2019-02-02 12:00:00 2.6 4 Noroeste -- -- 1 -- -- 57
2019-02-02 11:00:00 2.2 10 Noroeste 50 Noroeste 0.2 -- -- 61
2019-02-02 10:00:00 0.3 15 Oeste 37 Norte 0 -- -- 80
2019-02-02 09:00:00 0.7 20 Noroeste 48 Noroeste 0 -- -- 68
2019-02-02 08:00:00 0.9 26 Noroeste 63 Noroeste 0 -- -- 67
2019-02-02 07:00:00 0.5 9 Noroeste 42 Norte 0 -- -- 69
2019-02-02 06:00:00 0.6 11 Noroeste 40 Oeste 0 -- -- 68
2019-02-02 05:00:00 0.3 5 Sur 33 Sudoeste 0 -- -- 72
2019-02-02 04:00:00 0 5 Nordeste 53 Noroeste 0 -- -- 72
2019-02-02 03:00:00 0.6 24 Noroeste 54 Noroeste 0 -- -- 70
2019-02-02 02:00:00 0.4 23 Noroeste 57 Noroeste 0 -- -- 79
2019-02-02 01:00:00 0.2 17 Noroeste 41 Noroeste 0 -- -- 94
2019-02-02 00:00:00 0.5 15 Noroeste 39 Noroeste 0 -- -- 93
2019-02-01 23:00:00 1 21 Noroeste 50 Noroeste 0.2 -- -- 89
2019-02-01 22:00:00 1.5 20 Noroeste 51 Noroeste 0.2 -- -- 83
2019-02-01 21:00:00 1 16 Oeste 39 Noroeste 0.6 -- -- 94
2019-02-01 20:00:00 1.2 21 Oeste 48 Noroeste 0.8 -- -- 93
2019-02-01 19:00:00 0.9 13 Oeste 32 Noroeste 0.4 -- -- 95
2019-02-01 18:00:00 1.6 12 Oeste 36 Oeste 0.4 -- -- 90
2019-02-01 17:00:00 2.1 3 Oeste 4 Oeste 0.4 -- -- 89
2019-02-01 16:00:00 1.8 4 Sudoeste 31 Noroeste 0.6 -- -- 83
2019-02-01 15:00:00 3.2 3 Noroeste 31 Sudoeste 1.6 -- -- 72
2019-02-01 14:00:00 1.6 3 Sudoeste 5 Oeste 2 -- -- 91
2019-02-01 13:00:00 2.3 10 Oeste 44 Sudoeste 2.2 -- -- 86
2019-02-01 12:00:00 1.5 12 Sudoeste 30 Sudoeste 0.6 -- -- 91
2019-02-01 11:00:00 0.4 0 Calma 36 Sudoeste 0.4 -- -- 97
2019-02-01 10:00:00 0.9 3 Oeste 9 Sur 0.4 -- -- 97
2019-02-01 09:00:00 0.8 5 Sur 26 Sur 0.4 -- -- 96
2019-02-01 08:00:00 1.3 8 Sudoeste 27 Sudoeste 0.8 -- -- 93
2019-02-01 07:00:00 1.1 3 Sudoeste 30 Sur 0.8 -- -- 94
2019-02-01 06:00:00 1.1 5 Sur 42 Sudoeste 0.4 -- -- 94
2019-02-01 05:00:00 2.5 14 Sudoeste 47 Sudoeste 0 -- -- 80
2019-02-01 04:00:00 2.4 9 Sudoeste 39 Sudoeste 0.4 -- -- 86
2019-02-01 03:00:00 3.7 9 Sudoeste 28 Sudoeste 0 -- -- 84
2019-02-01 02:00:00 4.5 10 Sudoeste 32 Oeste 0 -- -- 78
2019-02-01 01:00:00 4.1 12 Sudoeste 30 Sur 0 -- -- 80
2019-02-01 00:00:00 4.3 4 Sudoeste 27 Oeste 0 -- -- 78
2019-01-31 23:00:00 5.1 8 Sudoeste 32 Oeste 0 -- -- 71
2019-01-31 22:00:00 5.6 8 Sudoeste 26 Sur 0 -- -- 75
2019-01-31 21:00:00 6.1 9 Oeste 43 Oeste 0 -- -- 75
2019-01-31 20:00:00 7.3 8 Sudoeste 33 Sudoeste 2.8 -- -- 90
2019-01-31 19:00:00 8.6 11 Sudoeste 40 Sudoeste 4.2 -- -- 90
2019-01-31 18:00:00 8.9 11 Sur 33 Sudoeste 2.4 -- -- 94
2019-01-31 17:00:00 9.4 17 Sudoeste 43 Oeste 0.4 -- -- 91
2019-01-31 16:00:00 9.9 7 Sudoeste 41 Sudoeste 0.8 -- -- 91
2019-01-31 15:00:00 10.8 7 Sudoeste 31 Sur 0 -- -- 88
2019-01-31 14:00:00 10.6 5 Sudoeste 20 Sur 0.4 -- -- 88
2019-01-31 13:00:00 11.8 4 Sudoeste 24 Oeste 0 -- -- 80
2019-01-31 12:00:00 9.5 8 Sudeste 29 Sudeste 0 -- -- 94
2019-01-31 11:00:00 9.5 7 Sudeste 24 Sudeste 0 -- -- 92
2019-01-31 10:00:00 8.7 10 Sur 27 Sudeste 0.2 -- -- 95
2019-01-31 09:00:00 8.2 9 Sur 23 Sudeste 0 -- -- 95
2019-01-31 08:00:00 8 8 Sudeste 22 Sur 0.2 -- -- 95
2019-01-31 07:00:00 7.9 4 Sur 15 Sur 0.4 -- -- 93
2019-01-31 06:00:00 7.6 6 Este 16 Sur 0.4 -- -- 98
2019-01-31 05:00:00 8 9 Sudeste 24 Sudeste 0.2 -- -- 97
2019-01-31 04:00:00 8.1 8 Sudeste 17 Sur 0.2 -- -- 95
2019-01-31 03:00:00 8 4 Sur 14 Sudeste 0.6 -- -- 96
2019-01-31 02:00:00 7.7 6 Sudeste 20 Sudeste 0.8 -- -- 97
2019-01-31 01:00:00 7.4 9 Sudeste 22 Sudeste 0.4 -- -- 97
2019-01-31 00:00:00 6.9 9 Sur 24 Sudeste 0.8 -- -- 97
2019-01-30 23:00:00 6.4 11 Sur 22 Sur 1 -- -- 97
2019-01-30 22:00:00 6.1 9 Sur 20 Sudeste 0.2 -- -- 95
2019-01-30 21:00:00 5.4 4 Sur 5 Sur 0.4 -- -- 96
2019-01-30 20:00:00 3.9 3 Sur 5 Sudoeste 0.8 -- -- 99
2019-01-30 19:00:00 3.7 3 Sudeste 14 Sudeste 0.6 -- -- 96
2019-01-30 18:00:00 3.6 6 Sudeste 13 Sur 0.6 -- -- 95
2019-01-30 17:00:00 3.8 4 Sur 15 Sur 0.6 -- -- 94
2019-01-30 16:00:00 3.7 8 Sur 17 Sur 0.4 -- -- 92
2019-01-30 15:00:00 3.6 7 Sur 22 Sur 0.6 -- -- 92
2019-01-30 14:00:00 3.6 8 Sur 21 Sur 0.2 -- -- 86
2019-01-30 13:00:00 3.7 6 Sur 19 Sur 0 -- -- 83
2019-01-30 12:00:00 3.6 4 Sur 14 Sudeste 0 -- -- 79
2019-01-30 11:00:00 3 5 Sudeste 14 Sur 0 -- -- 72
2019-01-30 10:00:00 0.7 4 Sur 10 Sur 0 -- -- 78
2019-01-30 09:00:00 -0.5 6 Oeste 17 Oeste 0 -- -- 80
2019-01-30 08:00:00 -3.3 3 Noroeste 6 Norte 0 -- -- 90
2019-01-30 07:00:00 -3.5 2 Norte 6 Norte 0 -- -- 87
2019-01-30 06:00:00 -2 3 Norte 12 Sudoeste 0 -- -- 81
2019-01-30 05:00:00 0.6 2 Noroeste 14 Oeste 0 -- -- 74
2019-01-30 04:00:00 1.1 6 Oeste 14 Oeste 0 -- -- 75
2019-01-30 03:00:00 2.2 6 Oeste 27 Oeste 0 -- -- 69
2019-01-30 02:00:00 2.3 12 Oeste 30 Oeste 0 -- -- 66
2019-01-30 01:00:00 2.6 11 Oeste 43 Oeste 0 -- -- 67
2019-01-30 00:00:00 2.9 15 Oeste 44 Oeste 0 -- -- 59
2019-01-29 23:00:00 3.3 3 Noroeste 6 Este 0 -- -- 72
2019-01-29 22:00:00 3.4 3 Sur 5 Sur 0 -- -- 73
2019-01-29 21:00:00 3.3 3 Sur 22 Oeste 0 -- -- 71
2019-01-29 20:00:00 3.4 5 Noroeste 27 Sudoeste 0 -- -- 72
2019-01-29 19:00:00 4.5 15 Noroeste 48 Noroeste 0 -- -- 72
2019-01-29 18:00:00 5 17 Noroeste 49 Oeste 0 -- -- 68
2019-01-29 17:00:00 5.9 16 Noroeste 49 Noroeste 0 -- -- 71
2019-01-29 16:00:00 6.4 18 Noroeste 58 Noroeste 0 -- -- 76
2019-01-29 15:00:00 7.1 6 Oeste 30 Oeste 1 -- -- 87
2019-01-29 14:00:00 6.3 0 Calma 16 Oeste 1 -- -- 92
2019-01-29 13:00:00 6.8 5 Sudoeste 21 Oeste 0.4 -- -- 87
2019-01-29 12:00:00 8.8 4 Oeste 9 Oeste 0 -- -- 68
2019-01-29 11:00:00 7.9 5 Oeste 33 Sudoeste 0 -- -- 70
2019-01-29 10:00:00 5.6 4 Sudoeste 13 Noroeste 0 -- -- 82
2019-01-29 09:00:00 4 4 Sur 28 Sudeste 0 -- -- 91
2019-01-29 08:00:00 4.1 8 Sudeste 28 Sudeste 0 -- -- 90
2019-01-29 07:00:00 4.8 5 Sur 16 Sur 0 -- -- 84
2019-01-29 06:00:00 4.1 4 Sur 15 Sudoeste 0 -- -- 87
2019-01-29 05:00:00 2.5 4 Sudoeste 14 Sudoeste 0 -- -- 93
2019-01-29 04:00:00 -0.6 2 Noroeste 5 Oeste 0 -- -- 95
2019-01-29 03:00:00 -1.8 0 Calma 4 Norte 0 -- -- 90
2019-01-29 02:00:00 -1 0 Calma 5 Norte 0 -- -- 86
2019-01-29 01:00:00 -1.4 2 Norte 5 Noroeste 0 -- -- 88
2019-01-29 00:00:00 -2.5 0 Calma 5 Norte 0 -- -- 89
2019-01-28 23:00:00 -2 0 Calma 5 Nordeste 0 -- -- 87
2019-01-28 22:00:00 -0.8 0 Calma 5 Norte 0 -- -- 83
2019-01-28 21:00:00 0.8 0 Calma 3 Noroeste 0 -- -- 76
2019-01-28 20:00:00 2.6 0 Calma 5 Norte 0 -- -- 70
2019-01-28 19:00:00 5.1 0 Calma 6 Nordeste 0 -- -- 62
2019-01-28 18:00:00 7.6 3 Sur 25 Oeste 0 -- -- 54
2019-01-28 17:00:00 9.2 4 Sudoeste 23 Sudoeste 0 -- -- 49
2019-01-28 16:00:00 9.7 4 Sudoeste 36 Oeste 0 -- -- 49
2019-01-28 15:00:00 10.9 9 Oeste 33 Oeste 0 -- -- 53
2019-01-28 14:00:00 11 10 Sudoeste 44 Norte 0 -- -- 49
2019-01-28 13:00:00 9.4 10 Sudoeste 26 Oeste 0 -- -- 60
2019-01-28 12:00:00 8.3 7 Sudeste 26 Noroeste 0 -- -- 65
2019-01-28 11:00:00 7.9 6 Sur 27 Sudeste 0 -- -- 67
2019-01-28 10:00:00 7.2 4 Sudoeste 30 Sudoeste 0 -- -- 69
2019-01-28 09:00:00 6.9 12 Oeste 44 Norte 0 -- -- 68
2019-01-28 08:00:00 6.8 20 Oeste 57 Sudoeste 0 -- -- 64
2019-01-28 07:00:00 7 6 Noroeste 53 Oeste 0 -- -- 67
2019-01-28 06:00:00 6.5 17 Noroeste 39 Oeste 0 -- -- 67
2019-01-28 05:00:00 6 11 Noroeste 29 Oeste 0 -- -- 69
2019-01-28 04:00:00 5.8 9 Oeste 28 Oeste 0 -- -- 69
2019-01-28 03:00:00 5.8 10 Oeste 27 Noroeste 0 -- -- 69
2019-01-28 02:00:00 5.2 8 Oeste 30 Norte 0 -- -- 71
2019-01-28 01:00:00 2.5 5 Oeste 26 Sudeste 0 -- -- 73
2019-01-28 00:00:00 2.8 3 Nordeste 7 Este 0 -- -- 67
2019-01-27 23:00:00 4 4 Sudoeste 26 Sudoeste 0 -- -- 59
2019-01-27 22:00:00 4.4 7 Sudoeste 28 Sudoeste 0 -- -- 58
2019-01-27 21:00:00 4.2 4 Sudeste 24 Sudoeste 0 -- -- 56
2019-01-27 20:00:00 4.5 4 Sur 19 Sudoeste 0 -- -- 58
2019-01-27 19:00:00 4.5 5 Oeste 18 Oeste 0 -- -- 57
2019-01-27 18:00:00 5.6 5 Oeste 29 Oeste 0 -- -- 54
2019-01-27 17:00:00 7 4 Oeste 22 Oeste 0 -- -- 52
2019-01-27 16:00:00 8.1 5 Oeste 17 Noroeste 0 -- -- 49
2019-01-27 15:00:00 8.2 4 Oeste 23 Oeste 0 -- -- 47
2019-01-27 14:00:00 9.1 3 Oeste 10 Sudoeste 0 -- -- 47
2019-01-27 13:00:00 9 4 Sur 9 Oeste 0 -- -- 47
2019-01-27 12:00:00 8.6 4 Sudoeste 7 Sur 0 -- -- 49
2019-01-27 11:00:00 7.1 4 Sudoeste 15 Sur 0 -- -- 52
2019-01-27 10:00:00 4.5 3 Sur 9 Sudoeste 0 -- -- 58
2019-01-27 09:00:00 3.2 4 Oeste 22 Sudoeste 0 -- -- 65
2019-01-27 08:00:00 3.7 14 Oeste 35 Oeste 0 -- -- 70
2019-01-27 07:00:00 4.5 18 Noroeste 40 Noroeste 0 -- -- 66
2019-01-27 06:00:00 4.6 5 Noroeste 25 Oeste 0 -- -- 65
2019-01-27 05:00:00 5.8 3 Noroeste 4 Noroeste 0 -- -- 67
2019-01-27 04:00:00 6.6 2 Oeste 5 Oeste 0 -- -- 73
2019-01-27 03:00:00 7 3 Sudoeste 3 Sudoeste 0 -- -- 77
2019-01-27 02:00:00 4.7 3 Oeste 10 Noroeste 0 -- -- 83
2019-01-27 01:00:00 1.6 2 Oeste 3 Oeste 0 -- -- 78
2019-01-27 00:00:00 -0.7 2 Norte 3 Norte 0 -- -- 74
2019-01-26 23:00:00 1.1 2 Norte 3 Sudoeste 0 -- -- 64
2019-01-26 22:00:00 2 2 Noroeste 3 Norte 0 -- -- 59
2019-01-26 21:00:00 3 2 Norte 4 Nordeste 0 -- -- 57
2019-01-26 20:00:00 5.6 3 Nordeste 22 Noroeste 0 -- -- 51
2019-01-26 19:00:00 8.1 3 Norte 10 Sudoeste 0 -- -- 47
2019-01-26 18:00:00 13.7 4 Sudoeste 18 Sudoeste 0 -- -- 23
2019-01-26 17:00:00 14.5 3 Sudeste 6 Sudeste 0 -- -- 44
2019-01-26 16:00:00 12.7 3 Sudeste 6 Nordeste 0 -- -- 59
2019-01-26 15:00:00 11.8 4 Sudeste 11 Sur 0 -- -- 60
2019-01-26 14:00:00 10.7 4 Sudeste 15 Sudeste 0 -- -- 63
2019-01-26 13:00:00 8.7 4 Sur 8 Sur 0 -- -- 69
2019-01-26 12:00:00 4.7 0 Calma 3 Sudoeste 0 -- -- 89
2019-01-26 11:00:00 -1.1 0 Calma 2 Sudoeste 0 -- -- 100
2019-01-26 10:00:00 -6 0 Calma 3 Norte 0 -- -- 99
2019-01-26 09:00:00 -7.4 0 Calma 2 Norte 0 -- -- 95
2019-01-26 08:00:00 -7 0 Calma 2 Noroeste 0 -- -- 94
2019-01-26 07:00:00 -6.7 0 Calma 3 Norte 0 -- -- 94
2019-01-26 06:00:00 -6.2 0 Calma 3 Noroeste 0 -- -- 95
2019-01-26 05:00:00 -5.8 0 Calma 2 Norte 0 -- -- 95
2019-01-26 04:00:00 -5.1 0 Calma 2 Norte 0 -- -- 96
2019-01-26 03:00:00 -4.8 0 Calma 2 Noroeste 0 -- -- 94
2019-01-26 02:00:00 -4 0 Calma 3 Norte 0 -- -- 94
2019-01-26 01:00:00 -3.3 0 Calma 3 Norte 0 -- -- 93
2019-01-26 00:00:00 -2.8 0 Calma 3 Norte 0 -- -- 91
2019-01-25 23:00:00 -1.7 0 Calma 3 Nordeste 0 -- -- 88
2019-01-25 22:00:00 -0.3 2 Norte 5 Norte 0 -- -- 83
2019-01-25 21:00:00 1.5 0 Calma 8 Norte 0 -- -- 77
2019-01-25 20:00:00 4.2 2 Norte 5 Norte 0 -- -- 71
2019-01-25 19:00:00 8.8 0 Calma 6 Sudeste 0 -- -- 60
2019-01-25 18:00:00 13.1 4 Sudeste 11 Sur 0 -- -- 48
2019-01-25 17:00:00 14.7 4 Sur 15 Sudeste 0 -- -- 43
2019-01-25 16:00:00 14.9 6 Sudeste 16 Sudeste 0 -- -- 42
2019-01-25 15:00:00 14.6 3 Sudeste 13 Este 0 -- -- 43
2019-01-25 14:00:00 13.9 3 Sudeste 8 Sudeste 0 -- -- 44
2019-01-25 13:00:00 13.2 5 Sudeste 9 Sudeste 0 -- -- 45
2019-01-25 12:00:00 10.6 3 Sur 5 Sur 0 -- -- 50
2019-01-25 11:00:00 2.1 0 Calma 4 Norte 0 -- -- 82
2019-01-25 10:00:00 -2.6 0 Calma 4 Norte 0 -- -- 95
2019-01-25 09:00:00 -3.1 0 Calma 3 Norte 0 -- -- 92
2019-01-25 08:00:00 -2.1 3 Norte 5 Norte 0 -- -- 89
2019-01-25 07:00:00 -0.8 0 Calma 5 Norte 0 -- -- 86
2019-01-25 06:00:00 2.2 0 Calma 5 Este 0 -- -- 74
2019-01-25 05:00:00 4.8 0 Calma 5 Este 0 -- -- 65
2019-01-25 04:00:00 4.6 2 Norte 6 Noroeste 0 -- -- 68
2019-01-25 03:00:00 4.3 2 Norte 5 Norte 0 -- -- 71
2019-01-25 02:00:00 6.2 5 Norte 14 Norte 0 -- -- 65
2019-01-25 01:00:00 5.7 0 Calma 8 Este 0 -- -- 64
2019-01-25 00:00:00 5.7 3 Sudeste 8 Sudeste 0 -- -- 68
2019-01-24 23:00:00 8 3 Nordeste 35 Norte 0 -- -- 62
2019-01-24 22:00:00 9.3 8 Norte 41 Noroeste 0 -- -- 58
2019-01-24 21:00:00 8.6 6 Norte 23 Norte 0 -- -- 66
2019-01-24 20:00:00 9.2 9 Norte 29 Oeste 0 -- -- 66
2019-01-24 19:00:00 9.9 5 Nordeste 20 Norte 0 -- -- 68
2019-01-24 18:00:00 11.6 5 Norte 19 Oeste 0 -- -- 61
2019-01-24 17:00:00 11.3 4 Oeste 13 Oeste 0 -- -- 60
2019-01-24 16:00:00 11.9 3 Oeste 18 Este 0 -- -- 57
2019-01-24 15:00:00 13 3 Norte 25 Norte 0 -- -- 57
2019-01-24 14:00:00 12.4 4 Oeste 12 Oeste 0 -- -- 61
2019-01-24 13:00:00 11.7 4 Sudeste 16 Noroeste 0 -- -- 63
2019-01-24 12:00:00 11.5 3 Norte 14 Sudeste 0 -- -- 64
2019-01-24 11:00:00 10.4 3 Sudeste 8 Sudoeste 0 -- -- 68
2019-01-24 10:00:00 9.6 3 Sur 12 Sudoeste 0 -- -- 72
2019-01-24 09:00:00 9.3 5 Sudeste 19 Este 0 -- -- 74
2019-01-24 08:00:00 9.6 4 Este 29 Nordeste 0 -- -- 72
2019-01-24 07:00:00 9.2 4 Sudeste 12 Sudeste 0 -- -- 74
2019-01-24 06:00:00 8.8 3 Sudeste 5 Sudoeste 0 -- -- 78
2019-01-24 05:00:00 9.2 2 Sudoeste 5 Sudoeste 0 -- -- 75
2019-01-24 04:00:00 9.2 3 Sudoeste 5 Sudoeste 0 -- -- 74
2019-01-24 03:00:00 9.1 3 Sudoeste 19 Sudoeste 0 -- -- 74
2019-01-24 02:00:00 9 4 Sur 13 Sur 0 -- -- 73
2019-01-24 01:00:00 9.2 2 Nordeste 22 Norte 0 -- -- 71
2019-01-24 00:00:00 9.5 6 Sudeste 18 Sur 0 -- -- 69
2019-01-23 23:00:00 9.6 7 Sur 25 Oeste 0 -- -- 69
2019-01-23 22:00:00 9.4 6 Sur 19 Sur 0 -- -- 69
2019-01-23 21:00:00 9.3 4 Sudeste 24 Oeste 0 -- -- 70
2019-01-23 20:00:00 9.8 10 Oeste 39 Noroeste 0 -- -- 68
2019-01-23 19:00:00 9.9 4 Oeste 31 Norte 0 -- -- 66
2019-01-23 18:00:00 9.5 6 Sudoeste 34 Noroeste 0 -- -- 71
2019-01-23 17:00:00 9.6 5 Oeste 37 Norte 0 -- -- 69
2019-01-23 16:00:00 10 14 Noroeste 34 Noroeste 0 -- -- 65
2019-01-23 15:00:00 10 6 Noroeste 34 Noroeste 0 -- -- 64
2019-01-23 14:00:00 10.2 4 Noroeste 6 Noroeste 0 -- -- 62
2019-01-23 13:00:00 9.8 4 Noroeste 5 Oeste 0 -- -- 64
2019-01-23 12:00:00 9.9 3 Noroeste 48 Norte 0 -- -- 63
2019-01-23 11:00:00 9.3 14 Noroeste 47 Noroeste 0 -- -- 64
2019-01-23 10:00:00 8.2 4 Sur 20 Oeste 0 -- -- 70
2019-01-23 09:00:00 8.2 4 Sudoeste 12 Oeste 0 -- -- 69
2019-01-23 08:00:00 7.9 4 Noroeste 31 Noroeste 0 -- -- 70
2019-01-23 07:00:00 7.6 5 Oeste 42 Oeste 0 -- -- 71
2019-01-23 06:00:00 7.2 9 Oeste 31 Sur 0 -- -- 73
2019-01-23 05:00:00 6.8 6 Sudoeste 25 Oeste 0 -- -- 73
2019-01-23 04:00:00 6.5 3 Sudoeste 19 Oeste 0 -- -- 75
2019-01-23 03:00:00 6 4 Norte 19 Sudoeste 0 -- -- 75
2019-01-23 02:00:00 5.8 5 Sudoeste 31 Norte 0 -- -- 74
2019-01-23 01:00:00 5.5 3 Oeste 21 Sudoeste 0 -- -- 73
2019-01-23 00:00:00 5.4 5 Oeste 13 Norte 0 -- -- 72
2019-01-22 23:00:00 4.9 4 Sudeste 9 Sudeste 0 -- -- 74
2019-01-22 22:00:00 5.3 3 Sudeste 11 Noroeste 0 -- -- 71
2019-01-22 21:00:00 5.7 4 Oeste 8 Noroeste 0 -- -- 68
2019-01-22 20:00:00 5.4 4 Oeste 53 Noroeste 0 -- -- 71
2019-01-22 19:00:00 5.5 6 Oeste 36 Oeste 0 -- -- 70
2019-01-22 18:00:00 5.6 4 Oeste 22 Oeste 0 -- -- 68
2019-01-22 17:00:00 6.3 4 Sur 22 Noroeste 0 -- -- 67
2019-01-22 16:00:00 7.3 3 Oeste 12 Noroeste 0 -- -- 65
2019-01-22 15:00:00 8 5 Oeste 26 Noroeste 0 -- -- 55
2019-01-22 14:00:00 7.7 5 Oeste 8 Oeste 0 -- -- 67
2019-01-22 13:00:00 6.9 2 Sudeste 6 Este 0 -- -- 76
2019-01-22 12:00:00 5.8 3 Sudoeste 6 Sudeste 0 -- -- 76
2019-01-22 11:00:00 5.4 3 Sudoeste 5 Oeste 0 -- -- 73
2019-01-22 10:00:00 4.7 3 Sur 6 Sudoeste 0 -- -- 74
2019-01-22 09:00:00 3.8 4 Sudoeste 6 Sudoeste 0 -- -- 76
2019-01-22 08:00:00 3.3 5 Sudoeste 6 Sudoeste 0 -- -- 80
2019-01-22 07:00:00 1.6 3 Sudoeste 5 Oeste 0 -- -- 85
2019-01-22 06:00:00 -3.1 0 Calma 5 Sudeste 0 -- -- 95
2019-01-22 05:00:00 -3 0 Calma 4 Norte 0 -- -- 93
2019-01-22 04:00:00 -2.8 0 Calma 3 Norte 0 -- -- 92
2019-01-22 03:00:00 -2.8 0 Calma 4 Sudoeste 0 -- -- 91
2019-01-22 02:00:00 -2.9 0 Calma 3 Norte 0 -- -- 91
2019-01-22 01:00:00 -3 0 Calma 4 Norte 0 -- -- 90
2019-01-22 00:00:00 -3.2 0 Calma 3 Nordeste 0 -- -- 90
2019-01-21 23:00:00 -2.7 0 Calma 3 Norte 0 -- -- 87
2019-01-21 22:00:00 -2.2 0 Calma 4 Norte 0 -- -- 83
2019-01-21 21:00:00 -1.6 0 Calma 4 Norte 0 -- -- 81
2019-01-21 20:00:00 0.1 2 Nordeste 6 Norte 0 -- -- 71
2019-01-21 19:00:00 2.9 3 Norte 7 Noroeste 0 -- -- 61
2019-01-21 18:00:00 6.7 3 Noroeste -- -- 0 -- -- 48
2019-01-21 17:00:00 8.1 5 Noroeste 15 Oeste 0 -- -- 43
2019-01-21 16:00:00 8.9 2 Noroeste 3 Noroeste 0 -- -- 39
2019-01-21 15:00:00 8.9 2 Norte 14 Noroeste 0 -- -- 40
2019-01-21 14:00:00 8.5 6 Norte 15 Nordeste 0 -- -- 43
2019-01-21 13:00:00 7.6 5 Norte 15 Noroeste 0 -- -- 51
2019-01-21 12:00:00 6.3 6 Noroeste 19 Norte 0 -- -- 55
2019-01-21 11:00:00 3.4 2 Noroeste 9 Oeste 0 -- -- 74
2019-01-21 10:00:00 -1.7 2 Sur 9 Norte 0 -- -- 91
2019-01-21 09:00:00 -3.1 3 Oeste 6 Norte 0 -- -- 94
2019-01-21 08:00:00 -2.5 0 Calma 8 Sur 0 -- -- 91
2019-01-21 07:00:00 -0.5 0 Calma 9 Sur 0 -- -- 85
2019-01-21 06:00:00 1.6 4 Noroeste 18 Oeste 0 -- -- 78
2019-01-21 05:00:00 2.2 3 Sudeste 9 Noroeste 0 -- -- 76
2019-01-21 04:00:00 2 3 Sur 16 Noroeste 0 -- -- 76
2019-01-21 03:00:00 0.3 3 Sudeste 6 Sur 0 -- -- 83
2019-01-21 02:00:00 -1 3 Sudeste 9 Sudeste 0 -- -- 89
2019-01-21 01:00:00 0.1 3 Sudeste 6 Sudeste 0 -- -- 87
2019-01-21 00:00:00 0.1 2 Sudeste 6 Sudeste 0 -- -- 88
2019-01-20 23:00:00 1 2 Sur 16 Noroeste 0 -- -- 81
2019-01-20 22:00:00 1.9 6 Norte 18 Noroeste 0 -- -- 79
2019-01-20 21:00:00 2.5 0 Calma 19 Norte 0 -- -- 76
2019-01-20 20:00:00 3.3 7 Noroeste 23 Noroeste 0 -- -- 76
2019-01-20 19:00:00 4.2 0 Calma 7 Noroeste 0 -- -- 70
2019-01-20 18:00:00 6 4 Noroeste 23 Noroeste 0 -- -- 64
2019-01-20 17:00:00 6.3 5 Noroeste 25 Noroeste 0 -- -- 66
2019-01-20 16:00:00 6.6 6 Norte 24 Norte 0 -- -- 64
2019-01-20 15:00:00 7.3 6 Norte 27 Noroeste 0 -- -- 63
2019-01-20 14:00:00 8 11 Norte 28 Noroeste 0 -- -- 62
2019-01-20 13:00:00 7.4 5 Noroeste 31 Norte 0 -- -- 62
2019-01-20 12:00:00 6.7 9 Noroeste 19 Noroeste 0 -- -- 70
2019-01-20 11:00:00 5.5 9 Noroeste 23 Noroeste 0 -- -- 73
2019-01-20 10:00:00 3.8 8 Noroeste 24 Norte 0 -- -- 77
2019-01-20 09:00:00 1.9 4 Noroeste 13 Oeste 0 -- -- 85
2019-01-20 08:00:00 2.4 2 Norte 15 Noroeste 0 -- -- 83
2019-01-20 07:00:00 3.1 3 Norte 20 Norte 0 -- -- 81
2019-01-20 06:00:00 3.3 3 Nordeste 21 Norte 0 -- -- 79
2019-01-20 05:00:00 3.5 5 Norte 38 Norte 0 -- -- 86
2019-01-20 04:00:00 3 4 Norte 14 Este 0 -- -- 89
2019-01-20 03:00:00 4.3 3 Noroeste 13 Sur 0 -- -- 82
2019-01-20 02:00:00 4.6 5 Oeste 27 Noroeste 0 -- -- 87
2019-01-20 01:00:00 4 6 Noroeste 27 Norte 0 -- -- 95
2019-01-20 00:00:00 1.2 3 Norte 9 Norte 0 -- -- 100
2019-01-19 23:00:00 1.2 0 Calma 5 Este 0.2 -- -- 100
2019-01-19 22:00:00 1.6 0 Calma 4 Este 0.4 -- -- 100
2019-01-19 21:00:00 1.6 0 Calma 4 Norte 0.4 -- -- 100
2019-01-19 20:00:00 1.7 0 Calma 3 Noroeste 0.8 -- -- 100
2019-01-19 19:00:00 1.8 0 Calma 5 Noroeste 0.6 -- -- 99
2019-01-19 18:00:00 2.2 0 Calma 5 Noroeste 0.8 -- -- 100
2019-01-19 17:00:00 2.2 0 Calma 3 Norte 0.6 -- -- 100
2019-01-19 16:00:00 1.9 0 Calma 4 Noroeste 1.2 -- -- 100
2019-01-19 15:00:00 1.9 0 Calma 4 Norte 1 -- -- 100
2019-01-19 14:00:00 1.6 0 Calma 2 Sudoeste 1.2 -- -- 99
2019-01-19 13:00:00 1.2 0 Calma 3 Este 0.6 -- -- 99
2019-01-19 12:00:00 0.7 0 Calma 3 Este 0.6 -- -- 100
2019-01-19 11:00:00 0.4 0 Calma 2 Sudeste 0.2 -- -- 100
2019-01-19 10:00:00 0 0 Calma 0 Calma 0 -- -- 100
2019-01-19 09:00:00 -0.2 0 Calma 0 Calma 0.2 -- -- 100
2019-01-19 08:00:00 -0.7 0 Calma 3 Oeste 0 -- -- 100
2019-01-19 07:00:00 -1.3 0 Calma 2 Noroeste 0 -- -- 100
2019-01-19 06:00:00 -1.6 0 Calma 5 Noroeste 0 -- -- 100
2019-01-19 05:00:00 -1.9 0 Calma 5 Sudeste 0 -- -- 100
2019-01-19 04:00:00 -2.4 0 Calma 5 Oeste 0 -- -- 100
2019-01-19 03:00:00 -2.2 2 Sudoeste 5 Este 0 -- -- 100
2019-01-19 02:00:00 -1.4 0 Calma 5 Noroeste 0 -- -- 99
2019-01-19 01:00:00 -0.6 0 Calma 4 Oeste 0 -- -- 100
2019-01-19 00:00:00 -0.5 0 Calma 4 Sur 0 -- -- 99